Time;durP1;ratioP1;P1;durP2;ratioP2;P2;SDS_P1;SDS_P2;PMS_P1;PMS_P2;Temp;Humidity;BMP_temperature;BMP_pressure;BME280_temperature;BME280_humidity;BME280_pressure;Samples;Min_cycle;Max_cycle;Signal;HPM_P1;HPM_P2
2023/09/02 00:00:44;;;;;;;;;;;;;;;24.71;57.00;101401.13;5047806;28;19928;-50
2023/09/02 00:03:11;;;;;;;;;;;;;;;24.77;56.65;101403.22;5050519;28;20310;-51
2023/09/02 00:05:38;;;;;;;;;;;;;;;24.82;56.38;101392.78;5050183;28;19924;-51
2023/09/02 00:08:05;;;;;;;;;;;;;;;24.87;56.13;101395.88;5049883;28;20367;-50
2023/09/02 00:10:32;;;;;;;;;;;;;;;24.89;56.12;101386.59;5047543;28;19921;-55
2023/09/02 00:13:00;;;;;;;;;;;;;;;24.93;55.87;101389.84;5050127;28;19927;-50
2023/09/02 00:15:27;;;;;;;;;;;;;;;24.98;55.69;101387.50;5050651;28;20301;-49
2023/09/02 00:17:55;;;;;;;;;;;;;;;25.02;55.66;101390.75;5049763;28;19944;-51
2023/09/02 00:20:22;;;;;;;;;;;;;;;25.05;55.66;101399.44;5038160;28;19928;-52
2023/09/02 00:22:49;;;;;;;;;;;;;;;25.08;55.65;101396.41;5050246;28;19921;-52
2023/09/02 00:25:16;;;;;;;;;;;;;;;25.10;55.40;101399.84;5050768;28;19921;-52
2023/09/02 00:27:43;;;;;;;;;;;;;;;25.11;55.45;101396.13;5050042;28;19928;-52
2023/09/02 00:30:10;;;;;;;;;;;;;;;25.13;55.41;101394.13;5047314;28;19928;-53
2023/09/02 00:32:38;;;;;;;;;;;;;;;25.15;55.11;101397.50;5043711;28;19921;-50
2023/09/02 00:35:05;;;;;;;;;;;;;;;25.16;55.26;101395.69;5043096;28;20375;-52
2023/09/02 00:37:32;;;;;;;;;;;;;;;25.17;55.05;101391.09;5049584;28;19921;-57
2023/09/02 00:39:59;;;;;;;;;;;;;;;25.19;55.12;101394.50;5046923;28;19928;-57
2023/09/02 00:42:28;;;;;;;;;;;;;;;25.19;54.98;101391.78;5046317;28;20380;-57
2023/09/02 00:44:56;;;;;;;;;;;;;;;25.19;55.06;101387.22;5043209;28;19921;-58
2023/09/02 00:47:23;;;;;;;;;;;;;;;25.21;55.11;101390.63;5049687;28;19921;-58
2023/09/02 00:49:50;;;;;;;;;;;;;;;25.21;55.04;101390.63;5047058;28;19921;-58
2023/09/02 00:52:18;;;;;;;;;;;;;;;25.23;55.09;101394.00;5043852;28;19921;-58
2023/09/02 00:54:45;;;;;;;;;;;;;;;25.23;55.13;101387.75;5043086;28;19921;-58
2023/09/02 00:57:13;;;;;;;;;;;;;;;25.24;54.79;101393.03;5050548;28;19920;-58
2023/09/02 00:59:40;;;;;;;;;;;;;;;25.24;55.03;101393.03;5037915;28;19921;-58
2023/09/02 01:02:07;;;;;;;;;;;;;;;25.25;55.10;101393.88;5050217;28;20287;-58
2023/09/02 01:04:34;;;;;;;;;;;;;;;25.25;54.75;101397.44;5040256;28;19921;-58
2023/09/02 01:07:02;;;;;;;;;;;;;;;25.26;54.99;101401.00;5046442;28;19921;-58
2023/09/02 01:09:33;;;;;;;;;;;;;;;25.26;55.07;101396.41;5032646;28;20298;-58
2023/09/02 01:12:00;;;;;;;;;;;;;;;25.27;54.98;101398.09;5049936;28;19928;-58
2023/09/02 01:14:27;;;;;;;;;;;;;;;25.27;54.96;101389.13;5049852;28;19928;-58
2023/09/02 01:16:55;;;;;;;;;;;;;;;25.27;54.94;101392.69;5036211;28;20287;-58
2023/09/02 01:19:22;;;;;;;;;;;;;;;25.28;54.85;101396.25;5046849;28;19921;-58
2023/09/02 01:22:07;;;;;;;;;;;;;;;25.29;54.60;101408.81;5049741;28;19932;-58
2023/09/02 01:24:53;;;;;;;;;;;;;;;25.29;54.95;101403.41;5050110;28;19943;-58
2023/09/02 01:27:32;;;;;;;;;;;;;;;25.29;54.89;101404.25;5046889;28;20417;-58
2023/09/02 01:30:01;;;;;;;;;;;;;;;25.29;54.80;101412.38;5041033;28;19925;-58
2023/09/02 01:32:32;;;;;;;;;;;;;;;25.30;54.73;101408.66;5043898;28;19943;-58
2023/09/02 01:35:03;;;;;;;;;;;;;;;25.31;54.80;101406.78;5045708;28;20303;-58
2023/09/02 01:37:43;;;;;;;;;;;;;;;25.30;54.83;101411.34;5049877;28;19920;-53
2023/09/02 01:40:12;;;;;;;;;;;;;;;25.33;54.81;101410.19;5037875;28;20375;-50
2023/09/02 01:42:40;;;;;;;;;;;;;;;25.33;54.87;101415.63;5035445;28;19932;-50
2023/09/02 01:45:09;;;;;;;;;;;;;;;25.33;54.86;101416.47;5052298;28;19921;-52
2023/09/02 01:47:37;;;;;;;;;;;;;;;25.33;54.75;101413.75;5052418;28;19921;-58
2023/09/02 01:50:07;;;;;;;;;;;;;;;25.34;54.90;101412.75;5053056;28;19921;-50
2023/09/02 01:52:34;;;;;;;;;;;;;;;25.34;55.07;101406.47;5050647;28;20359;-50
2023/09/02 01:55:02;;;;;;;;;;;;;;;25.34;55.05;101407.31;5052465;28;19921;-51
2023/09/02 01:57:29;;;;;;;;;;;;;;;25.34;55.05;101401.91;5045027;28;19935;-50
2023/09/02 01:59:56;;;;;;;;;;;;;;;25.34;55.26;101407.31;5038605;28;19920;-50
2023/09/02 02:02:23;;;;;;;;;;;;;;;25.35;55.19;101397.31;5048423;28;19927;-50
2023/09/02 02:04:53;;;;;;;;;;;;;;;25.35;55.00;101400.03;5051916;28;19921;-51
2023/09/02 02:07:21;;;;;;;;;;;;;;;25.34;55.09;101396.47;5053061;28;20287;-50
2023/09/02 02:09:53;;;;;;;;;;;;;;;25.34;55.13;101391.06;5040238;28;19921;-50
2023/09/02 02:12:21;;;;;;;;;;;;;;;25.34;55.10;101382.94;5049594;28;19925;-52
2023/09/02 02:14:48;;;;;;;;;;;;;;;25.35;55.05;101387.34;5039753;28;19921;-50
2023/09/02 02:17:15;;;;;;;;;;;;;;;25.36;55.10;101380.03;5053061;28;20378;-49
2023/09/02 02:19:44;;;;;;;;;;;;;;;25.35;55.17;101381.91;5039677;28;20376;-50
2023/09/02 02:22:11;;;;;;;;;;;;;;;25.35;54.88;101389.19;5047566;28;20406;-51
2023/09/02 02:24:38;;;;;;;;;;;;;;;25.35;54.98;101391.91;5052658;28;19932;-51
2023/09/02 02:27:05;;;;;;;;;;;;;;;25.36;55.10;101388.19;5052596;28;19920;-50
2023/09/02 02:29:34;;;;;;;;;;;;;;;25.35;54.97;101384.63;5039201;28;20398;-49
2023/09/02 02:32:01;;;;;;;;;;;;;;;25.35;54.86;101391.91;5037921;28;19921;-50
2023/09/02 02:34:29;;;;;;;;;;;;;;;25.36;54.96;101396.31;5052684;28;19924;-50
2023/09/02 02:36:57;;;;;;;;;;;;;;;25.35;55.05;101386.47;5052326;28;19920;-49
2023/09/02 02:39:24;;;;;;;;;;;;;;;25.36;54.92;101397.19;5051497;28;19927;-50
2023/09/02 02:41:51;;;;;;;;;;;;;;;25.36;54.94;101390.88;5047804;28;19936;-52
2023/09/02 02:44:18;;;;;;;;;;;;;;;25.36;54.99;101393.59;5052138;28;19928;-50
2023/09/02 02:46:47;;;;;;;;;;;;;;;25.37;54.81;101389.91;5052845;28;19921;-50
2023/09/02 02:49:14;;;;;;;;;;;;;;;25.36;54.85;101394.47;5038417;28;19921;-49
2023/09/02 02:51:41;;;;;;;;;;;;;;;25.37;54.69;101387.19;5047722;28;19932;-50
2023/09/02 02:54:08;;;;;;;;;;;;;;;25.37;54.85;101392.63;5041782;28;19932;-50
2023/09/02 02:56:35;;;;;;;;;;;;;;;25.37;54.74;101387.19;5052022;28;19921;-50
2023/09/02 02:59:03;;;;;;;;;;;;;;;25.36;54.66;101389.06;5050869;28;19928;-50
2023/09/02 03:01:32;;;;;;;;;;;;;;;25.37;54.55;101387.19;5048276;28;19928;-49
2023/09/02 03:04:00;;;;;;;;;;;;;;;25.35;54.63;101390.03;5046410;28;19932;-51
2023/09/02 03:06:28;;;;;;;;;;;;;;;25.36;54.66;101397.19;5036699;28;19928;-50
2023/09/02 03:08:55;;;;;;;;;;;;;;;25.36;54.35;101386.34;5048445;28;19928;-49
2023/09/02 03:11:22;;;;;;;;;;;;;;;25.36;54.48;101386.34;5034480;28;19921;-50
2023/09/02 03:13:49;;;;;;;;;;;;;;;25.36;54.45;101385.47;5042117;28;19920;-51
2023/09/02 03:16:23;;;;;;;;;;;;;;;25.36;54.63;101380.03;5041024;28;19921;-50
2023/09/02 03:18:52;;;;;;;;;;;;;;;25.36;54.41;101380.94;5047322;28;19931;-58
2023/09/02 03:21:20;;;;;;;;;;;;;;;25.36;54.52;101374.63;5048198;28;19921;-58
2023/09/02 03:23:47;;;;;;;;;;;;;;;25.35;54.39;101381.91;5044650;28;19921;-58
2023/09/02 03:26:18;;;;;;;;;;;;;;;25.37;54.14;101389.91;5043108;28;19928;-58
2023/09/02 03:28:49;;;;;;;;;;;;;;;25.37;54.38;101389.91;5036506;28;20383;-50
2023/09/02 03:31:17;;;;;;;;;;;;;;;25.37;54.32;101392.63;5048909;28;19928;-51
2023/09/02 03:33:46;;;;;;;;;;;;;;;25.36;54.28;101394.47;5043634;28;19928;-50
2023/09/02 03:36:20;;;;;;;;;;;;;;;25.37;54.17;101392.63;5044444;28;20290;-50
2023/09/02 03:38:47;;;;;;;;;;;;;;;25.37;54.27;101379.06;5048109;28;20399;-50
2023/09/02 03:41:18;;;;;;;;;;;;;;;25.37;54.31;101389.91;5049544;28;19920;-49
2023/09/02 03:43:45;;;;;;;;;;;;;;;25.37;54.00;101389.91;5051188;28;19927;-52
2023/09/02 03:46:13;;;;;;;;;;;;;;;25.37;54.10;101390.75;5037871;28;20375;-50
2023/09/02 03:48:41;;;;;;;;;;;;;;;25.37;54.08;101387.19;5046231;28;19936;-58
2023/09/02 03:51:12;;;;;;;;;;;;;;;25.37;54.12;101398.88;5037771;28;19924;-58
2023/09/02 03:53:44;;;;;;;;;;;;;;;25.37;54.12;101390.75;5040764;28;19921;-57
2023/09/02 03:56:13;;;;;;;;;;;;;;;25.37;54.02;101384.47;5045879;28;20032;-58
2023/09/02 03:58:41;;;;;;;;;;;;;;;25.36;54.08;101382.75;5047340;28;19921;-57
2023/09/02 04:01:09;;;;;;;;;;;;;;;25.36;53.99;101389.06;5044284;28;20383;-58
2023/09/02 04:03:36;;;;;;;;;;;;;;;25.37;53.96;101392.63;5036054;28;19920;-58
2023/09/02 04:06:07;;;;;;;;;;;;;;;25.36;53.99;101390.88;5045113;28;19920;-57
2023/09/02 04:08:36;;;;;;;;;;;;;;;25.36;54.18;101399.03;5048488;28;19928;-57
2023/09/02 04:11:03;;;;;;;;;;;;;;;25.36;54.04;101396.31;5050490;28;20425;-58
2023/09/02 04:13:30;;;;;;;;;;;;;;;25.36;53.85;101399.91;5039636;28;19921;-58
2023/09/02 04:16:02;;;;;;;;;;;;;;;25.37;53.99;101398.03;5045641;28;19925;-58
2023/09/02 04:18:32;;;;;;;;;;;;;;;25.36;54.07;101408.03;5048476;28;20379;-58
2023/09/02 04:21:00;;;;;;;;;;;;;;;25.35;53.99;101398.19;5042390;28;19921;-58
2023/09/02 04:23:27;;;;;;;;;;;;;;;25.36;54.04;101404.44;5043652;28;20302;-58
2023/09/02 04:25:56;;;;;;;;;;;;;;;25.36;54.05;101409.88;5034735;28;19920;-58
2023/09/02 04:28:23;;;;;;;;;;;;;;;25.35;54.07;101409.00;5040290;28;19944;-58
2023/09/02 04:30:56;;;;;;;;;;;;;;;25.36;54.14;101409.88;5041997;28;20299;-57
2023/09/02 04:33:25;;;;;;;;;;;;;;;25.35;54.01;101409.00;5035399;28;19928;-58
2023/09/02 04:35:54;;;;;;;;;;;;;;;25.36;53.90;101407.16;5045584;28;19980;-58
2023/09/02 04:38:23;;;;;;;;;;;;;;;25.36;54.20;101409.88;5036809;28;20414;-49
2023/09/02 04:40:54;;;;;;;;;;;;;;;25.36;54.10;101413.44;5040163;28;19921;-49
2023/09/02 04:43:22;;;;;;;;;;;;;;;25.36;54.01;101410.75;5045806;28;19924;-50
2023/09/02 04:45:52;;;;;;;;;;;;;;;25.36;53.99;101415.28;5046914;28;19932;-49
2023/09/02 04:48:20;;;;;;;;;;;;;;;25.36;54.08;101416.16;5050340;28;19929;-51
2023/09/02 04:50:51;;;;;;;;;;;;;;;25.36;54.10;101415.28;5050170;28;20286;-50
2023/09/02 04:53:18;;;;;;;;;;;;;;;25.36;54.16;101424.28;5035610;28;19921;-50
2023/09/02 04:55:47;;;;;;;;;;;;;;;25.37;54.02;101419.72;5046516;28;19921;-50
2023/09/02 04:58:15;;;;;;;;;;;;;;;25.38;53.88;101424.13;5050303;28;20270;-58
2023/09/02 05:00:43;;;;;;;;;;;;;;;25.36;54.01;101420.69;5038854;28;19925;-58
2023/09/02 05:03:11;;;;;;;;;;;;;;;25.36;53.84;101426.13;5045755;28;19921;-58
2023/09/02 05:05:39;;;;;;;;;;;;;;;25.37;54.06;101434.13;5046843;28;19921;-58
2023/09/02 05:08:11;;;;;;;;;;;;;;;25.36;53.92;101435.13;5042698;28;19928;-50
2023/09/02 05:10:39;;;;;;;;;;;;;;;25.37;53.90;101431.41;5031218;28;19920;-53
2023/09/02 05:13:06;;;;;;;;;;;;;;;25.37;53.83;101433.28;5047683;28;20267;-50
2023/09/02 05:15:33;;;;;;;;;;;;;;;25.36;53.92;101443.25;5048561;28;19924;-50
2023/09/02 05:18:01;;;;;;;;;;;;;;;25.37;53.74;101446.81;5043890;28;19920;-58
2023/09/02 05:20:29;;;;;;;;;;;;;;;25.37;53.89;101444.97;5047280;28;20371;-58
2023/09/02 05:22:57;;;;;;;;;;;;;;;25.37;53.71;101444.97;5038669;28;20371;-58
2023/09/02 05:25:25;;;;;;;;;;;;;;;25.37;53.84;101454.94;5051827;28;19921;-58
2023/09/02 05:27:53;;;;;;;;;;;;;;;25.37;53.67;101449.53;5045195;28;19932;-49
2023/09/02 05:30:20;;;;;;;;;;;;;;;25.36;53.74;101451.41;5048816;28;19921;-52
2023/09/02 05:32:47;;;;;;;;;;;;;;;25.37;53.51;101460.38;5050997;28;19920;-50
2023/09/02 05:35:14;;;;;;;;;;;;;;;25.37;53.82;101454.94;5052184;28;19921;-50
2023/09/02 05:37:42;;;;;;;;;;;;;;;25.37;53.81;101449.53;5053334;28;20286;-58
2023/09/02 05:40:10;;;;;;;;;;;;;;;25.37;53.68;101449.53;5053388;28;19931;-58
2023/09/02 05:42:37;;;;;;;;;;;;;;;25.35;53.71;101449.66;5045764;28;19920;-58
2023/09/02 05:45:05;;;;;;;;;;;;;;;25.36;53.58;101455.94;5051917;28;19921;-58
2023/09/02 05:47:32;;;;;;;;;;;;;;;25.37;53.74;101455.81;5053134;28;19921;-57
2023/09/02 05:50:03;;;;;;;;;;;;;;;25.37;53.58;101455.81;5053392;28;19925;-50
2023/09/02 05:52:31;;;;;;;;;;;;;;;25.37;53.46;101458.50;5050273;28;19924;-52
2023/09/02 05:54:58;;;;;;;;;;;;;;;25.38;53.52;101456.66;5052364;28;19921;-50
2023/09/02 05:57:29;;;;;;;;;;;;;;;25.37;53.64;101460.38;5053323;28;19928;-50
2023/09/02 05:59:56;;;;;;;;;;;;;;;25.37;53.61;101463.94;5053023;28;19921;-50
2023/09/02 06:02:23;;;;;;;;;;;;;;;25.38;53.78;101467.50;5049624;28;19932;-58
2023/09/02 06:04:50;;;;;;;;;;;;;;;25.38;53.58;101471.03;5052777;28;19921;-58
2023/09/02 06:07:18;;;;;;;;;;;;;;;25.36;53.08;101466.78;5053002;28;19921;-58
2023/09/02 06:09:45;;;;;;;;;;;;;;;25.33;53.00;101470.66;5052999;28;19927;-58
2023/09/02 06:12:12;;;;;;;;;;;;;;;25.30;52.82;101465.56;5049815;28;19921;-58
2023/09/02 06:14:39;;;;;;;;;;;;;;;25.28;52.72;101467.59;5052600;28;20409;-58
2023/09/02 06:17:06;;;;;;;;;;;;;;;25.26;52.52;101455.19;5052830;28;19921;-58
2023/09/02 06:19:33;;;;;;;;;;;;;;;25.23;52.78;101469.03;5053191;28;19924;-58
2023/09/02 06:22:00;;;;;;;;;;;;;;;25.20;52.79;101461.22;5049796;28;19936;-58
2023/09/02 06:24:28;;;;;;;;;;;;;;;25.20;52.61;101463.94;5051982;28;20290;-58
2023/09/02 06:26:55;;;;;;;;;;;;;;;25.17;52.86;101477.81;5052770;28;20382;-58
2023/09/02 06:29:22;;;;;;;;;;;;;;;25.16;52.71;101479.66;5050594;28;19928;-57
2023/09/02 06:31:49;;;;;;;;;;;;;;;25.15;53.04;101472.53;5050229;28;20298;-57
2023/09/02 06:34:22;;;;;;;;;;;;;;;25.14;53.02;101474.38;5051960;28;19928;-57
2023/09/02 06:36:49;;;;;;;;;;;;;;;25.14;52.90;101474.38;5052150;28;19933;-57
2023/09/02 06:39:17;;;;;;;;;;;;;;;25.15;53.05;101472.53;5053071;28;19921;-57
2023/09/02 06:41:44;;;;;;;;;;;;;;;25.15;53.21;101484.22;5036472;28;19925;-57
2023/09/02 06:44:13;;;;;;;;;;;;;;;25.15;53.07;101483.38;5039458;28;19925;-57
2023/09/02 06:46:41;;;;;;;;;;;;;;;25.14;53.17;101482.50;5052380;28;19928;-57
2023/09/02 06:49:08;;;;;;;;;;;;;;;25.11;53.12;101488.22;5052368;28;19940;-58
2023/09/02 06:51:36;;;;;;;;;;;;;;;25.09;53.22;101490.25;5048473;28;19936;-58
2023/09/02 06:54:03;;;;;;;;;;;;;;;25.07;53.42;101492.22;5040225;28;19921;-58
2023/09/02 06:56:30;;;;;;;;;;;;;;;25.05;53.38;101490.69;5052170;28;19928;-58
2023/09/02 06:58:57;;;;;;;;;;;;;;;25.01;53.38;101495.56;5048929;28;19920;-58
2023/09/02 07:01:26;;;;;;;;;;;;;;;24.96;53.39;101495.19;5048747;28;19925;-58
2023/09/02 07:03:55;;;;;;;;;;;;;;;24.92;53.41;101493.78;5039950;28;19927;-58
2023/09/02 07:06:23;;;;;;;;;;;;;;;24.87;53.45;101498.78;5051498;28;20383;-57
2023/09/02 07:08:50;;;;;;;;;;;;;;;24.82;53.62;101501.09;5052208;28;19920;-58
2023/09/02 07:11:17;;;;;;;;;;;;;;;24.78;53.86;101497.84;5048025;28;19921;-58
2023/09/02 07:13:47;;;;;;;;;;;;;;;24.79;53.94;101504.09;5051795;28;19920;-58
2023/09/02 07:16:17;;;;;;;;;;;;;;;24.77;53.86;101511.53;5051965;28;19932;-58
2023/09/02 07:18:44;;;;;;;;;;;;;;;24.76;54.04;101516.13;5051194;28;19932;-55
2023/09/02 07:21:12;;;;;;;;;;;;;;;24.74;54.26;101511.84;5048280;28;19928;-59
2023/09/02 07:23:39;;;;;;;;;;;;;;;24.74;53.94;101515.41;5051473;28;19928;-50
2023/09/02 07:26:06;;;;;;;;;;;;;;;24.75;53.87;101521.66;5051680;28;19927;-50
2023/09/02 07:28:33;;;;;;;;;;;;;;;24.76;53.65;101521.53;5051487;28;19920;-53
2023/09/02 07:31:01;;;;;;;;;;;;;;;24.77;53.58;101523.22;5048147;28;20281;-54
2023/09/02 07:33:29;;;;;;;;;;;;;;;24.78;53.74;101527.63;5051246;28;19927;-51
2023/09/02 07:35:57;;;;;;;;;;;;;;;24.81;53.55;101515.66;5051531;28;19928;-54
2023/09/02 07:38:25;;;;;;;;;;;;;;;24.80;53.81;101522.09;5051561;28;19932;-57
2023/09/02 07:40:52;;;;;;;;;;;;;;;24.80;53.95;101527.50;5047391;28;20263;-57
2023/09/02 07:43:19;;;;;;;;;;;;;;;24.79;54.10;101526.63;5051171;28;19920;-57
2023/09/02 07:45:48;;;;;;;;;;;;;;;24.81;53.98;101529.19;5051229;28;19921;-57
2023/09/02 07:48:15;;;;;;;;;;;;;;;24.83;54.28;101535.28;5050892;28;19921;-59
2023/09/02 07:50:43;;;;;;;;;;;;;;;24.84;54.20;101539.72;5038959;28;19928;-59
2023/09/02 07:53:10;;;;;;;;;;;;;;;24.86;54.12;101532.28;5050837;28;19928;-59
2023/09/02 07:55:37;;;;;;;;;;;;;;;24.86;54.25;101535.00;5050880;28;20294;-59
2023/09/02 07:58:04;;;;;;;;;;;;;;;24.89;54.00;101532.00;5050766;28;19924;-58
2023/09/02 08:00:35;;;;;;;;;;;;;;;24.91;54.19;101535.38;5047546;28;19928;-58
2023/09/02 08:03:02;;;;;;;;;;;;;;;24.89;54.10;101532.84;5050941;28;19928;-58
2023/09/02 08:05:30;;;;;;;;;;;;;;;24.89;54.10;101540.13;5050933;28;19921;-58
2023/09/02 08:07:57;;;;;;;;;;;;;;;24.88;54.28;101536.56;5050062;28;19927;-59
2023/09/02 08:10:24;;;;;;;;;;;;;;;24.91;54.45;101540.81;5047951;28;19925;-59
2023/09/02 08:12:51;;;;;;;;;;;;;;;24.90;54.33;101533.69;5048855;28;19961;-58
2023/09/02 08:15:18;;;;;;;;;;;;;;;24.92;54.21;101526.28;5050360;28;19987;-59
2023/09/02 08:17:45;;;;;;;;;;;;;;;24.91;54.51;101532.69;5049676;28;20306;-50
2023/09/02 08:20:13;;;;;;;;;;;;;;;24.91;54.64;101536.28;5034076;28;19921;-55
2023/09/02 08:22:42;;;;;;;;;;;;;;;24.94;54.65;101529.69;5034165;28;19925;-49
2023/09/02 08:25:11;;;;;;;;;;;;;;;24.98;54.56;101535.66;5033848;28;19921;-52
2023/09/02 08:27:42;;;;;;;;;;;;;;;24.99;54.32;101527.34;5034073;28;19921;-49
2023/09/02 08:30:09;;;;;;;;;;;;;;;25.00;54.35;101534.50;5033874;28;19925;-49
2023/09/02 08:32:36;;;;;;;;;;;;;;;25.01;54.35;101528.06;5033706;28;19928;-50
2023/09/02 08:35:04;;;;;;;;;;;;;;;25.02;54.47;101520.78;5033899;28;19928;-51
2023/09/02 08:37:32;;;;;;;;;;;;;;;25.04;54.15;101525.06;5033657;28;19928;-53
2023/09/02 08:39:59;;;;;;;;;;;;;;;25.06;54.24;101530.31;5034262;28;19921;-51
2023/09/02 08:42:26;;;;;;;;;;;;;;;25.06;54.40;101530.31;5034070;28;20366;-50
2023/09/02 08:44:55;;;;;;;;;;;;;;;25.07;54.24;101529.31;5034252;28;19921;-50
2023/09/02 08:47:24;;;;;;;;;;;;;;;25.06;54.19;101527.59;5033818;28;19928;-49
2023/09/02 08:49:51;;;;;;;;;;;;;;;25.06;54.18;101525.75;5034111;28;19921;-49
2023/09/02 08:52:19;;;;;;;;;;;;;;;25.07;54.27;101519.31;5034877;28;19928;-49
2023/09/02 08:54:46;;;;;;;;;;;;;;;25.07;54.12;101516.59;5038068;28;19921;-49
2023/09/02 08:57:16;;;;;;;;;;;;;;;25.12;54.20;101521.63;5038060;28;19921;-49
2023/09/02 08:59:43;;;;;;;;;;;;;;;25.17;54.13;101518.44;5038021;28;19921;-48
2023/09/02 09:02:11;;;;;;;;;;;;;;;25.20;54.04;101513.59;5037980;28;19921;-49
2023/09/02 09:04:39;;;;;;;;;;;;;;;25.23;53.91;101515.97;5048109;28;19932;-48
2023/09/02 09:07:06;;;;;;;;;;;;;;;25.25;54.51;101515.81;5051914;28;19921;-49
2023/09/02 09:09:35;;;;;;;;;;;;;;;25.25;54.60;101515.81;5052483;28;19921;-55
2023/09/02 09:12:03;;;;;;;;;;;;;;;25.24;54.41;101517.69;5054260;28;20275;-55
2023/09/02 09:14:32;;;;;;;;;;;;;;;25.26;54.58;101522.94;5054181;28;19921;-54
2023/09/02 09:16:59;;;;;;;;;;;;;;;25.26;54.59;101517.53;5051982;28;19943;-56
2023/09/02 09:19:27;;;;;;;;;;;;;;;25.28;54.77;101515.50;5052599;28;19921;-51
2023/09/02 09:21:55;;;;;;;;;;;;;;;25.26;54.79;101506.69;5053886;28;19931;-50
2023/09/02 09:24:22;;;;;;;;;;;;;;;25.26;54.63;101506.69;5041627;28;19928;-49
2023/09/02 09:26:50;;;;;;;;;;;;;;;25.28;54.74;101515.50;5050736;28;20382;-49
2023/09/02 09:29:18;;;;;;;;;;;;;;;25.26;54.49;101510.25;5053318;28;19936;-55
2023/09/02 09:31:45;;;;;;;;;;;;;;;25.25;54.19;101515.81;5045560;28;20406;-55
2023/09/02 09:34:13;;;;;;;;;;;;;;;25.27;54.40;101514.66;5048800;28;19920;-56
2023/09/02 09:36:41;;;;;;;;;;;;;;;25.29;54.39;101515.34;5051005;28;19943;-53
2023/09/02 09:39:10;;;;;;;;;;;;;;;25.32;54.26;101508.75;5053136;28;20363;-49
2023/09/02 09:41:44;;;;;;;;;;;;;;;25.34;54.12;101504.91;5053442;28;19920;-49
2023/09/02 09:44:13;;;;;;;;;;;;;;;25.35;54.15;101503.88;5053865;28;19920;-49
2023/09/02 09:46:43;;;;;;;;;;;;;;;25.37;54.20;101501.88;5049763;28;19928;-49
2023/09/02 09:49:23;;;;;;;;;;;;;;;25.38;54.25;101495.44;5053254;28;19921;-49
2023/09/02 09:51:59;;;;;;;;;;;;;;;25.42;54.06;101500.56;5053520;28;19921;-49
2023/09/02 09:54:36;;;;;;;;;;;;;;;25.43;54.14;101494.97;5050344;28;19921;-50
2023/09/02 09:57:04;;;;;;;;;;;;;;;25.47;54.28;101507.22;5042419;28;19928;-49
2023/09/02 09:59:34;;;;;;;;;;;;;;;25.49;54.17;101504.34;5053305;28;19946;-49
2023/09/02 10:02:02;;;;;;;;;;;;;;;25.50;54.27;101509.63;5052497;28;19921;-49
2023/09/02 10:04:29;;;;;;;;;;;;;;;25.50;54.24;101506.91;5049286;28;19921;-59
2023/09/02 10:07:00;;;;;;;;;;;;;;;25.50;54.41;101509.63;5052846;28;19921;-59
2023/09/02 10:09:40;;;;;;;;;;;;;;;25.51;54.28;101516.72;5053305;28;19921;-59
2023/09/02 10:12:11;;;;;;;;;;;;;;;25.52;54.19;101515.75;5050199;28;19935;-59
2023/09/02 10:14:44;;;;;;;;;;;;;;;25.53;54.41;101506.59;5052795;28;19920;-59
2023/09/02 10:17:11;;;;;;;;;;;;;;;25.54;54.30;101510.16;5052829;28;19927;-59
2023/09/02 10:19:39;;;;;;;;;;;;;;;25.54;54.25;101502.03;5052774;28;19921;-59
2023/09/02 10:22:07;;;;;;;;;;;;;;;25.54;54.53;101505.59;5041073;28;19920;-58
2023/09/02 10:24:39;;;;;;;;;;;;;;;25.54;54.50;101504.72;5052566;28;19921;-58
2023/09/02 10:27:07;;;;;;;;;;;;;;;25.54;54.38;101502.03;5052766;28;19936;-59
2023/09/02 10:29:36;;;;;;;;;;;;;;;25.57;54.33;101497.13;5051860;28;19921;-58
2023/09/02 10:32:09;;;;;;;;;;;;;;;25.60;54.31;101504.97;5050339;28;19928;-58
2023/09/02 10:34:42;;;;;;;;;;;;;;;25.63;54.23;101492.94;5052630;28;19932;-58
2023/09/02 10:37:12;;;;;;;;;;;;;;;25.62;54.29;101497.50;5052441;28;19931;-58
2023/09/02 10:39:45;;;;;;;;;;;;;;;25.63;54.19;101493.78;5049227;28;19942;-52
2023/09/02 10:42:13;;;;;;;;;;;;;;;25.65;54.29;101496.34;5038361;28;19921;-50
2023/09/02 10:44:41;;;;;;;;;;;;;;;25.65;54.36;101490.94;5044591;28;19928;-48
2023/09/02 10:47:08;;;;;;;;;;;;;;;25.70;53.88;101490.47;5052406;28;20433;-49
2023/09/02 10:49:36;;;;;;;;;;;;;;;25.82;53.16;101489.22;5048404;28;19921;-48
2023/09/02 10:52:03;;;;;;;;;;;;;;;25.93;52.11;101486.25;5052404;28;19920;-50
2023/09/02 10:55:09;;;;;;;;;;;;;;;25.95;52.62;101481.50;5052345;28;19921;-55
2023/09/02 10:57:48;;;;;;;;;;;;;;;26.02;51.86;101482.56;5052679;28;19925;-56
2023/09/02 11:00:15;;;;;;;;;;;;;;;25.97;52.85;101482.22;5052829;28;20409;-56
2023/09/02 11:02:44;;;;;;;;;;;;;;;25.94;54.40;101481.69;5052509;28;19928;-55
2023/09/02 11:05:11;;;;;;;;;;;;;;;25.88;55.61;101480.44;5051694;28;19920;-56
2023/09/02 11:07:40;;;;;;;;;;;;;;;25.84;56.06;101477.19;5052781;28;19928;-56
2023/09/02 11:10:08;;;;;;;;;;;;;;;25.81;55.96;101485.66;5052615;28;19921;-55
2023/09/02 11:12:55;;;;;;;;;;;;;;;25.78;55.75;101477.00;5052750;28;19928;-55
2023/09/02 11:15:22;;;;;;;;;;;;;;;25.76;56.44;101490.66;5048206;28;20411;-54
2023/09/02 11:17:49;;;;;;;;;;;;;;;25.74;56.71;101483.72;5051269;28;19935;-56
2023/09/02 11:20:20;;;;;;;;;;;;;;;25.72;56.80;101483.00;5052189;28;19928;-56
2023/09/02 11:22:56;;;;;;;;;;;;;;;25.71;57.01;101482.16;5051546;28;19921;-57
2023/09/02 11:25:30;;;;;;;;;;;;;;;25.70;56.46;101482.31;5052360;28;20020;-57
2023/09/02 11:27:59;;;;;;;;;;;;;;;25.69;56.16;101486.06;5046990;28;19921;-56
2023/09/02 11:30:28;;;;;;;;;;;;;;;25.69;56.52;101491.47;5047556;28;19947;-57
2023/09/02 11:32:56;;;;;;;;;;;;;;;25.68;57.12;101485.16;5048365;28;19921;-57
2023/09/02 11:35:25;;;;;;;;;;;;;;;25.68;57.11;101489.75;5045125;28;19921;-57
2023/09/02 11:37:52;;;;;;;;;;;;;;;25.69;57.12;101491.47;5043849;28;19920;-57
2023/09/02 11:40:20;;;;;;;;;;;;;;;25.67;57.12;101494.31;5050586;28;19921;-57
2023/09/02 11:42:50;;;;;;;;;;;;;;;25.67;57.21;101498.91;5039011;28;19931;-57
2023/09/02 11:45:18;;;;;;;;;;;;;;;25.67;57.16;101494.31;5050559;28;19928;-57
2023/09/02 11:47:46;;;;;;;;;;;;;;;25.68;57.24;101490.59;5050971;28;19925;-55
2023/09/02 11:50:14;;;;;;;;;;;;;;;25.68;57.28;101485.16;5042714;28;19921;-55
2023/09/02 11:52:42;;;;;;;;;;;;;;;25.68;57.07;101484.31;5039319;28;19921;-55
2023/09/02 11:55:10;;;;;;;;;;;;;;;25.68;57.05;101487.88;5043747;28;19924;-55
2023/09/02 11:57:38;;;;;;;;;;;;;;;25.69;57.54;101484.19;5048243;28;19928;-56
2023/09/02 12:00:08;;;;;;;;;;;;;;;25.71;57.57;101492.16;5041795;28;19920;-57
2023/09/02 12:02:36;;;;;;;;;;;;;;;25.71;57.39;101489.44;5048032;28;20331;-57
2023/09/02 12:05:03;;;;;;;;;;;;;;;25.71;57.40;101489.44;5038283;28;19921;-57
2023/09/02 12:07:32;;;;;;;;;;;;;;;25.72;57.41;101485.72;5047627;28;19921;-55
2023/09/02 12:10:05;;;;;;;;;;;;;;;25.72;57.07;101489.28;5041404;28;19921;-54
2023/09/02 12:12:32;;;;;;;;;;;;;;;25.73;56.67;101485.56;5046334;28;19925;-51
2023/09/02 12:15:00;;;;;;;;;;;;;;;25.74;56.00;101479.13;5044737;28;20375;-55
2023/09/02 12:17:28;;;;;;;;;;;;;;;25.91;52.03;101468.41;5040714;28;19940;-55
2023/09/02 12:19:55;;;;;;;;;;;;;;;26.19;50.04;101469.94;5050198;28;20385;-55
2023/09/02 12:22:22;;;;;;;;;;;;;;;26.30;49.63;101475.09;5052799;28;19924;-53
2023/09/02 12:24:49;;;;;;;;;;;;;;;26.35;49.58;101466.47;5050503;28;19920;-55
2023/09/02 12:27:17;;;;;;;;;;;;;;;26.53;48.08;101460.94;5046211;28;19925;-55
2023/09/02 12:29:55;;;;;;;;;;;;;;;26.50;48.65;101454.00;5047478;28;19920;-57
2023/09/02 12:32:22;;;;;;;;;;;;;;;26.45;49.94;101452.78;5040496;28;19924;-55
2023/09/02 12:34:49;;;;;;;;;;;;;;;26.37;50.90;101448.13;5042041;28;19921;-57
2023/09/02 12:37:19;;;;;;;;;;;;;;;26.31;51.44;101462.38;5051125;28;19932;-56
2023/09/02 12:39:49;;;;;;;;;;;;;;;26.29;51.13;101461.66;5047100;28;19927;-56
2023/09/02 12:42:18;;;;;;;;;;;;;;;26.29;50.29;101454.41;5040810;28;19932;-51